createdAt,value
2017-01-05T00:00:02.978Z,966.52
2017-01-05T00:01:02.935Z,966.49
2017-01-05T00:02:02.892Z,966.48
2017-01-05T00:03:02.850Z,966.48
2017-01-05T00:04:02.807Z,966.44
2017-01-05T00:05:02.765Z,966.49
2017-01-05T00:06:02.725Z,966.52
2017-01-05T00:07:02.679Z,966.51
2017-01-05T00:08:02.636Z,966.56
2017-01-05T00:09:02.594Z,966.55
2017-01-05T00:10:02.552Z,966.58
2017-01-05T00:11:02.508Z,966.65
2017-01-05T00:12:02.467Z,966.59
2017-01-05T00:13:02.425Z,966.61
2017-01-05T00:14:02.380Z,966.6
2017-01-05T00:15:02.338Z,966.58
2017-01-05T00:16:02.295Z,966.62
2017-01-05T00:17:02.252Z,966.65
2017-01-05T00:18:02.209Z,966.72
2017-01-05T00:19:02.166Z,966.7
2017-01-05T00:20:02.125Z,966.7
2017-01-05T00:21:02.080Z,966.69
2017-01-05T00:22:02.040Z,966.68
2017-01-05T00:23:01.995Z,966.68
2017-01-05T00:24:01.953Z,966.65
2017-01-05T00:25:01.910Z,966.71
2017-01-05T00:26:01.866Z,966.73
2017-01-05T00:27:01.826Z,966.69
2017-01-05T00:28:01.781Z,966.67
2017-01-05T00:29:01.740Z,966.69
2017-01-05T00:30:01.697Z,966.66
2017-01-05T00:31:01.654Z,966.7
2017-01-05T00:32:01.611Z,966.67
2017-01-05T00:33:01.569Z,966.69
2017-01-05T00:34:01.526Z,966.72
2017-01-05T00:35:01.484Z,966.72
2017-01-05T00:36:01.439Z,966.72
2017-01-05T00:37:01.402Z,966.75
2017-01-05T00:38:01.354Z,966.76
2017-01-05T00:39:01.311Z,966.77
2017-01-05T00:40:01.269Z,966.84
2017-01-05T00:41:01.226Z,966.8
2017-01-05T00:42:01.184Z,966.79
2017-01-05T00:43:01.139Z,966.79
2017-01-05T00:44:01.097Z,966.83
2017-01-05T00:45:01.056Z,966.82
2017-01-05T00:46:01.013Z,966.92
2017-01-05T00:47:00.969Z,966.97
2017-01-05T00:48:00.926Z,967.03
2017-01-05T00:49:00.884Z,967.03
2017-01-05T00:50:00.840Z,967.01
2017-01-05T00:51:00.798Z,967.02
2017-01-05T00:52:00.755Z,967.04
2017-01-05T00:53:00.713Z,966.99
2017-01-05T00:54:00.672Z,966.97
2017-01-05T00:55:00.628Z,966.95
2017-01-05T00:56:00.588Z,966.98
2017-01-05T00:57:00.542Z,967.02
2017-01-05T00:58:00.499Z,967.07
2017-01-05T00:59:00.455Z,967.05
2017-01-05T01:00:00.415Z,967.13
2017-01-05T01:01:00.370Z,967.14
2017-01-05T01:02:00.327Z,967.16
2017-01-05T01:03:00.284Z,967.19
2017-01-05T01:04:00.243Z,967.28
2017-01-05T01:05:00.198Z,967.27
2017-01-05T01:06:00.156Z,967.28
2017-01-05T01:07:00.112Z,967.25
2017-01-05T01:08:00.071Z,967.32
2017-01-05T01:09:00.027Z,967.35
2017-01-05T01:09:59.984Z,967.39
2017-01-05T01:10:59.941Z,967.43
2017-01-05T01:11:59.898Z,967.47
2017-01-05T01:12:59.857Z,967.48
2017-01-05T01:13:59.813Z,967.43
2017-01-05T01:14:59.770Z,967.46
2017-01-05T01:15:59.726Z,967.5
2017-01-05T01:16:59.684Z,967.53
2017-01-05T01:17:59.641Z,967.51
2017-01-05T01:18:59.599Z,967.47
2017-01-05T01:19:59.556Z,967.52
2017-01-05T01:20:59.514Z,967.52
2017-01-05T01:21:59.470Z,967.48
2017-01-05T01:22:59.426Z,967.52
2017-01-05T01:23:59.388Z,967.52
2017-01-05T01:24:59.343Z,967.5
2017-01-05T01:25:59.300Z,967.48
2017-01-05T01:26:59.255Z,967.51
2017-01-05T01:27:59.213Z,967.65
2017-01-05T01:28:59.170Z,967.72
2017-01-05T01:29:59.126Z,967.63
2017-01-05T01:30:59.085Z,967.67
2017-01-05T01:31:59.041Z,967.73
2017-01-05T01:32:58.998Z,967.71
2017-01-05T01:33:58.956Z,967.78
2017-01-05T01:34:58.915Z,967.79
2017-01-05T01:35:58.869Z,967.78
2017-01-05T01:36:58.827Z,967.8
2017-01-05T01:37:58.786Z,967.86
2017-01-05T01:38:58.741Z,967.88
2017-01-05T01:39:58.698Z,967.95
2017-01-05T01:40:58.655Z,967.94
2017-01-05T01:41:58.611Z,967.97
2017-01-05T01:42:58.570Z,968.01
2017-01-05T01:43:58.535Z,967.97
2017-01-05T01:44:58.484Z,967.91
2017-01-05T01:45:58.440Z,967.86
2017-01-05T01:46:58.399Z,967.86
2017-01-05T01:47:58.354Z,967.89
2017-01-05T01:48:58.311Z,967.88
2017-01-05T01:49:58.269Z,967.92
2017-01-05T01:50:58.226Z,967.94
2017-01-05T01:51:58.183Z,967.94
2017-01-05T01:52:58.141Z,968.01
2017-01-05T01:53:58.097Z,968.04
2017-01-05T01:54:58.056Z,968.04
2017-01-05T01:55:58.013Z,968.06
2017-01-05T01:56:57.968Z,968.11
2017-01-05T01:57:57.928Z,968.11
2017-01-05T01:58:57.883Z,968.12
2017-01-05T01:59:57.840Z,968.12
2017-01-05T02:00:57.795Z,968.15
2017-01-05T02:01:57.753Z,968.2
2017-01-05T02:02:57.709Z,968.2
2017-01-05T02:03:57.667Z,968.18
2017-01-05T02:04:57.624Z,968.16
2017-01-05T02:05:57.583Z,968.17
2017-01-05T02:06:57.536Z,968.15
2017-01-05T02:07:57.495Z,968.14
2017-01-05T02:08:57.452Z,968.17
2017-01-05T02:09:57.408Z,968.17
2017-01-05T02:10:57.365Z,968.16
2017-01-05T02:11:57.322Z,968.19
2017-01-05T02:12:57.280Z,968.12
2017-01-05T02:13:57.234Z,968.18
2017-01-05T02:14:57.191Z,968.15
2017-01-05T02:15:57.149Z,968.06
2017-01-05T02:16:57.106Z,968
2017-01-05T02:17:57.062Z,968.08
2017-01-05T02:18:57.019Z,968.12
2017-01-05T02:19:56.978Z,968.15
2017-01-05T02:20:56.933Z,968.18
2017-01-05T02:21:56.890Z,968.14
2017-01-05T02:22:56.846Z,968.08
2017-01-05T02:23:56.804Z,968.14
2017-01-05T02:24:56.759Z,968.11
2017-01-05T02:25:56.716Z,968.11
2017-01-05T02:26:56.674Z,968.1
2017-01-05T02:27:56.630Z,968.17
2017-01-05T02:28:56.586Z,968.21
2017-01-05T02:29:56.544Z,968.14
2017-01-05T02:30:56.499Z,968.14
2017-01-05T02:31:56.457Z,968.16
2017-01-05T02:32:56.412Z,968.21
2017-01-05T02:33:56.371Z,968.22
2017-01-05T02:34:56.328Z,968.21
2017-01-05T02:35:56.284Z,968.22
2017-01-05T02:36:56.241Z,968.23
2017-01-05T02:37:56.199Z,968.18
2017-01-05T02:38:56.153Z,968.18
2017-01-05T02:39:56.110Z,968.24
2017-01-05T02:40:56.068Z,968.24
2017-01-05T02:41:56.025Z,968.25
2017-01-05T02:42:55.982Z,968.22
2017-01-05T02:43:55.938Z,968.17
2017-01-05T02:44:55.896Z,968.27
2017-01-05T02:45:55.852Z,968.28
2017-01-05T02:46:55.808Z,968.31
2017-01-05T02:47:55.766Z,968.37
2017-01-05T02:48:55.722Z,968.38
2017-01-05T02:49:55.679Z,968.35
2017-01-05T02:50:55.635Z,968.44
2017-01-05T02:51:55.592Z,968.4
2017-01-05T02:52:55.548Z,968.36
2017-01-05T02:53:55.506Z,968.41
2017-01-05T02:54:55.462Z,968.44
2017-01-05T02:55:55.421Z,968.45
2017-01-05T02:56:55.377Z,968.47
2017-01-05T02:57:55.333Z,968.44
2017-01-05T02:58:55.289Z,968.51
2017-01-05T02:59:55.249Z,968.53
2017-01-05T03:00:55.205Z,968.53
2017-01-05T03:01:55.162Z,968.51
2017-01-05T03:02:55.114Z,968.54
2017-01-05T03:03:55.074Z,968.59
2017-01-05T03:04:55.029Z,968.55
2017-01-05T03:05:54.987Z,968.56
2017-01-05T03:06:54.942Z,968.62
2017-01-05T03:07:54.902Z,968.58
2017-01-05T03:08:55.133Z,968.62
2017-01-05T03:09:55.041Z,968.64
2017-01-05T03:10:54.771Z,968.63
2017-01-05T03:11:54.728Z,968.63
2017-01-05T03:12:54.682Z,968.69
2017-01-05T03:13:54.640Z,968.69
2017-01-05T03:14:54.597Z,968.73
2017-01-05T03:15:54.553Z,968.8
2017-01-05T03:16:54.509Z,968.81
2017-01-05T03:17:54.466Z,968.8
2017-01-05T03:18:54.424Z,968.84
2017-01-05T03:19:54.380Z,968.82
2017-01-05T03:20:54.335Z,968.81
2017-01-05T03:21:54.293Z,968.83
2017-01-05T03:22:54.250Z,968.88
2017-01-05T03:23:54.205Z,968.89
2017-01-05T03:24:54.162Z,968.9
2017-01-05T03:25:54.118Z,968.89
2017-01-05T03:26:54.076Z,968.93
2017-01-05T03:27:54.031Z,968.93
2017-01-05T03:28:53.988Z,968.95
2017-01-05T03:29:53.945Z,968.94
2017-01-05T03:30:53.898Z,968.94
2017-01-05T03:31:53.857Z,968.96
2017-01-05T03:32:53.814Z,969
2017-01-05T03:33:53.773Z,968.97
2017-01-05T03:34:53.725Z,968.99
2017-01-05T03:35:53.682Z,968.97
2017-01-05T03:36:53.640Z,968.99
2017-01-05T03:37:53.594Z,969.05
2017-01-05T03:38:53.551Z,969.04
2017-01-05T03:39:53.510Z,969.04
2017-01-05T03:40:53.464Z,969.05
2017-01-05T03:41:53.424Z,969.02
2017-01-05T03:42:53.382Z,969.04
2017-01-05T03:43:53.337Z,969.08
2017-01-05T03:44:53.294Z,969.11
2017-01-05T03:45:53.245Z,969.14
2017-01-05T03:46:53.203Z,969.15
2017-01-05T03:47:53.158Z,969.1
2017-01-05T03:48:53.118Z,969.18
2017-01-05T03:49:53.071Z,969.21
2017-01-05T03:50:53.029Z,969.22
2017-01-05T03:51:52.983Z,969.22
2017-01-05T03:52:52.939Z,969.27
2017-01-05T03:53:52.896Z,969.23
2017-01-05T03:54:52.851Z,969.31
2017-01-05T03:55:52.810Z,969.28
2017-01-05T03:56:52.764Z,969.28
2017-01-05T03:57:52.720Z,969.25
2017-01-05T03:58:52.677Z,969.26
2017-01-05T03:59:52.632Z,969.31
2017-01-05T04:00:52.588Z,969.29
2017-01-05T04:01:52.544Z,969.3
2017-01-05T04:02:52.501Z,969.29
2017-01-05T04:03:52.455Z,969.29
2017-01-05T04:04:52.413Z,969.31
2017-01-05T04:05:52.368Z,969.32
2017-01-05T04:06:52.327Z,969.3
2017-01-05T04:07:52.281Z,969.31
2017-01-05T04:08:52.240Z,969.39
2017-01-05T04:09:52.193Z,969.42
2017-01-05T04:10:52.148Z,969.42
2017-01-05T04:11:52.104Z,969.43
2017-01-05T04:12:52.060Z,969.39
2017-01-05T04:13:52.017Z,969.36
2017-01-05T04:14:51.971Z,969.42
2017-01-05T04:15:51.928Z,969.42
2017-01-05T04:16:51.886Z,969.45
2017-01-05T04:17:51.842Z,969.48
2017-01-05T04:18:51.796Z,969.48
2017-01-05T04:19:51.753Z,969.5
2017-01-05T04:20:51.711Z,969.54
2017-01-05T04:21:51.664Z,969.55
2017-01-05T04:22:51.621Z,969.57
2017-01-05T04:23:51.578Z,969.61
2017-01-05T04:24:51.532Z,969.63
2017-01-05T04:25:51.488Z,969.67
2017-01-05T04:26:51.444Z,969.7
2017-01-05T04:27:51.402Z,969.71
2017-01-05T04:28:51.357Z,969.72
2017-01-05T04:29:51.312Z,969.74
2017-01-05T04:30:51.269Z,969.71
2017-01-05T04:31:51.227Z,969.75
2017-01-05T04:32:51.180Z,969.73
2017-01-05T04:33:51.136Z,969.77
2017-01-05T04:34:51.093Z,969.79
2017-01-05T04:35:51.053Z,969.8
2017-01-05T04:36:51.003Z,969.78
2017-01-05T04:37:50.960Z,969.81
2017-01-05T04:38:50.916Z,969.81
2017-01-05T04:39:50.873Z,969.78
2017-01-05T04:40:50.828Z,969.8
2017-01-05T04:41:50.785Z,969.81
2017-01-05T04:42:50.740Z,969.85
2017-01-05T04:43:50.694Z,969.81
2017-01-05T04:44:50.652Z,969.8
2017-01-05T04:45:50.607Z,969.84
2017-01-05T04:46:50.563Z,969.88
2017-01-05T04:47:50.518Z,969.84
2017-01-05T04:48:50.475Z,969.85
2017-01-05T04:49:50.433Z,969.87
2017-01-05T04:50:50.386Z,969.89
2017-01-05T04:51:50.342Z,969.94
2017-01-05T04:52:50.298Z,969.93
2017-01-05T07:30:43.310Z,971.36
2017-01-05T07:31:43.268Z,971.38
2017-01-05T07:32:43.220Z,971.37
2017-01-05T07:33:43.177Z,971.37
2017-01-05T07:34:43.138Z,971.35
2017-01-05T07:35:43.090Z,971.4
2017-01-05T07:36:43.043Z,971.36
2017-01-05T07:37:43.001Z,971.39
2017-01-05T07:38:42.958Z,971.32
2017-01-05T07:39:42.915Z,971.37
2017-01-05T07:40:42.872Z,971.38
2017-01-05T07:41:42.827Z,971.39
2017-01-05T07:42:42.783Z,971.4
2017-01-05T07:43:42.739Z,971.34
2017-01-05T07:44:42.694Z,971.35
2017-01-05T07:45:42.653Z,971.38
2017-01-05T07:46:42.609Z,971.35
2017-01-05T07:47:42.567Z,971.33
2017-01-05T07:48:42.523Z,971.38
2017-01-05T07:49:42.478Z,971.41
2017-01-05T07:50:42.435Z,971.42
2017-01-05T07:51:42.394Z,971.41
2017-01-05T07:52:42.351Z,971.44
2017-01-05T07:53:42.307Z,971.46
2017-01-05T07:54:42.263Z,971.4
2017-01-05T07:55:42.219Z,971.48
2017-01-05T07:56:42.179Z,971.39
2017-01-05T07:57:42.134Z,971.44
2017-01-05T07:58:42.092Z,971.48
2017-01-05T07:59:42.049Z,971.51
2017-01-05T08:00:42.006Z,971.55
2017-01-05T08:01:41.964Z,971.61
2017-01-05T08:02:41.921Z,971.59
2017-01-05T08:03:41.883Z,971.6
2017-01-05T08:04:41.837Z,971.61
2017-01-05T08:05:41.795Z,971.62
2017-01-05T08:06:41.754Z,971.57
2017-01-05T08:07:41.712Z,971.57
2017-01-05T08:08:41.668Z,971.59
2017-01-05T08:09:41.626Z,971.59
2017-01-05T08:10:41.584Z,971.59
2017-01-05T08:11:41.542Z,971.63
2017-01-05T08:12:41.500Z,971.64
2017-01-05T08:13:41.458Z,971.68
2017-01-05T08:14:41.415Z,971.62
2017-01-05T08:15:41.374Z,971.65
2017-01-05T08:16:41.331Z,971.66
2017-01-05T08:17:41.300Z,971.73
2017-01-05T08:18:41.246Z,971.76
2017-01-05T08:19:41.205Z,971.75
2017-01-05T08:20:41.163Z,971.8
2017-01-05T08:21:41.119Z,971.82
2017-01-05T08:22:41.076Z,971.82
2017-01-05T08:23:41.035Z,971.8
2017-01-05T08:24:40.992Z,971.8
2017-01-05T08:25:40.949Z,971.82
2017-01-05T08:26:40.907Z,971.8
2017-01-05T08:27:40.863Z,971.81
2017-01-05T08:28:40.822Z,971.85
2017-01-05T08:29:40.778Z,971.88
2017-01-05T08:30:40.736Z,971.9
2017-01-05T08:31:40.694Z,971.95
2017-01-05T08:32:40.652Z,971.93
2017-01-05T08:33:40.609Z,971.96
2017-01-05T08:34:40.565Z,971.95
2017-01-05T08:35:40.523Z,971.93
2017-01-05T08:36:40.481Z,971.95
2017-01-05T08:37:40.438Z,971.96
2017-01-05T08:38:40.395Z,971.95
2017-01-05T08:39:40.353Z,971.99
2017-01-05T08:40:40.311Z,972
2017-01-05T08:41:40.267Z,971.97
2017-01-05T08:42:40.227Z,971.97
2017-01-05T08:43:40.184Z,972.02
2017-01-05T08:44:40.141Z,972.01
2017-01-05T08:45:40.101Z,972.05
2017-01-05T08:46:40.054Z,972.02
2017-01-05T08:47:40.013Z,972.06
2017-01-05T08:48:39.973Z,972.07
2017-01-05T08:49:39.926Z,972.11
2017-01-05T08:50:39.885Z,972.16
2017-01-05T08:51:39.842Z,972.16
2017-01-05T08:52:39.799Z,972.14
2017-01-05T08:53:39.756Z,972.14
2017-01-05T08:54:39.714Z,972.13
2017-01-05T08:55:39.671Z,972.18
2017-01-05T08:56:39.628Z,972.15
2017-01-05T08:57:39.585Z,972.16
2017-01-05T08:58:39.543Z,972.18
2017-01-05T08:59:39.500Z,972.15
2017-01-05T09:00:39.459Z,972.23
2017-01-05T09:01:39.415Z,972.22
2017-01-05T09:02:39.372Z,972.22
2017-01-05T09:03:39.329Z,972.25
2017-01-05T09:04:39.287Z,972.23
2017-01-05T09:05:39.245Z,972.21
2017-01-05T09:06:39.201Z,972.23
2017-01-05T09:07:39.161Z,972.24
2017-01-05T09:08:39.116Z,972.26
2017-01-05T09:09:39.073Z,972.24
2017-01-05T09:10:39.031Z,972.23
2017-01-05T09:11:38.989Z,972.27
2017-01-05T09:12:38.946Z,972.24
2017-01-05T09:13:38.903Z,972.25
2017-01-05T09:14:38.860Z,972.33
2017-01-05T09:15:38.819Z,972.26
2017-01-05T09:16:38.777Z,972.28
2017-01-05T09:17:38.733Z,972.24
2017-01-05T09:18:38.691Z,972.26
2017-01-05T09:19:38.650Z,972.25
2017-01-05T09:20:38.607Z,972.27
2017-01-05T09:21:38.565Z,972.28
2017-01-05T09:22:38.522Z,972.37
2017-01-05T09:23:38.479Z,972.36
2017-01-05T09:24:38.435Z,972.36
2017-01-05T09:25:38.394Z,972.39
2017-01-05T09:26:38.350Z,972.36
2017-01-05T09:27:38.310Z,972.39
2017-01-05T09:28:38.268Z,972.39
2017-01-05T09:29:38.224Z,972.39
2017-01-05T09:30:38.181Z,972.38
2017-01-05T09:31:38.140Z,972.36
2017-01-05T09:32:38.096Z,972.37
2017-01-05T09:33:38.055Z,972.39
2017-01-05T09:34:38.011Z,972.38
2017-01-05T09:35:37.968Z,972.42
2017-01-05T09:36:37.927Z,972.43
2017-01-05T09:37:37.885Z,972.43
2017-01-05T09:38:37.845Z,972.46
2017-01-05T09:39:37.800Z,972.5
2017-01-05T09:40:37.759Z,972.51
2017-01-05T09:41:37.715Z,972.51
2017-01-05T09:42:37.674Z,972.53
2017-01-05T09:43:37.631Z,972.55
2017-01-05T09:44:37.590Z,972.51
2017-01-05T09:45:37.548Z,972.54
2017-01-05T09:46:37.505Z,972.57
2017-01-05T09:47:37.463Z,972.54
2017-01-05T09:48:37.420Z,972.52
2017-01-05T09:49:37.381Z,972.51
2017-01-05T09:50:37.337Z,972.47
2017-01-05T09:51:37.295Z,972.45
2017-01-05T09:52:37.254Z,972.46
2017-01-05T09:53:37.212Z,972.41
2017-01-05T09:54:37.171Z,972.41
2017-01-05T09:55:37.130Z,972.4
2017-01-05T09:56:37.087Z,972.41
2017-01-05T09:57:37.043Z,972.42
2017-01-05T09:58:37.004Z,972.45
2017-01-05T09:59:36.961Z,972.46
2017-01-05T10:00:36.921Z,972.5
2017-01-05T10:01:36.877Z,972.57
2017-01-05T10:02:36.836Z,972.7
2017-01-05T10:03:36.794Z,972.8
2017-01-05T10:04:36.753Z,972.72
2017-01-05T10:05:36.710Z,972.71
2017-01-05T10:06:36.670Z,972.69
2017-01-05T10:07:36.628Z,972.61
2017-01-05T10:08:36.588Z,972.61
2017-01-05T10:09:36.551Z,972.61
2017-01-05T10:10:36.508Z,972.61
2017-01-05T10:11:36.469Z,972.72
2017-01-05T10:12:36.429Z,972.51
2017-01-05T10:13:36.414Z,972.62
2017-01-05T10:14:36.352Z,972.64
2017-01-05T10:15:36.310Z,972.61
2017-01-05T10:16:36.272Z,972.63
2017-01-05T10:17:36.236Z,972.57
2017-01-05T10:18:36.196Z,972.51
2017-01-05T10:19:36.158Z,972.54
2017-01-05T10:20:36.121Z,972.53
2017-01-05T10:21:36.083Z,972.48
2017-01-05T10:22:36.045Z,972.46
2017-01-05T10:23:36.007Z,972.56
2017-01-05T10:24:35.969Z,972.5
2017-01-05T10:25:35.932Z,972.54
2017-01-05T10:26:35.895Z,972.49
2017-01-05T10:27:35.858Z,972.5
2017-01-05T10:28:35.820Z,972.4
2017-01-05T10:29:35.784Z,972.45
2017-01-05T10:30:35.746Z,972.43
2017-01-05T10:31:35.708Z,972.52
2017-01-05T10:32:35.672Z,972.67
2017-01-05T10:33:35.633Z,972.62
2017-01-05T10:34:35.596Z,972.58
2017-01-05T10:35:35.559Z,972.6
2017-01-05T10:36:35.522Z,972.59
2017-01-05T10:37:35.485Z,972.59
2017-01-05T10:38:35.447Z,972.68
2017-01-05T10:39:35.410Z,972.75
2017-01-05T10:40:35.374Z,972.69
2017-01-05T10:41:35.334Z,972.64
2017-01-05T10:42:35.296Z,972.63
2017-01-05T10:43:35.261Z,972.64
2017-01-05T10:44:35.223Z,972.62
2017-01-05T10:45:35.185Z,972.67
2017-01-05T10:46:35.147Z,972.68
2017-01-05T10:47:35.108Z,972.69
2017-01-05T10:48:35.072Z,972.79
2017-01-05T10:49:35.034Z,972.76
2017-01-05T10:50:34.995Z,972.71
2017-01-05T10:51:34.957Z,972.6
2017-01-05T10:52:34.918Z,972.82
2017-01-05T10:53:34.880Z,972.82
2017-01-05T10:54:34.842Z,972.83
2017-01-05T10:55:34.803Z,972.84
2017-01-05T10:56:34.764Z,972.86
2017-01-05T10:57:34.727Z,972.83
2017-01-05T10:58:34.690Z,972.9
2017-01-05T10:59:34.653Z,972.88
2017-01-05T11:00:34.614Z,972.86
2017-01-05T11:01:34.578Z,972.86
2017-01-05T11:02:34.544Z,972.85
2017-01-05T11:03:34.507Z,972.84
2017-01-05T11:04:34.475Z,972.85
2017-01-05T11:05:34.436Z,972.93
2017-01-05T11:06:34.402Z,972.99
2017-01-05T11:07:34.368Z,973.04
2017-01-05T11:08:34.331Z,973.06
2017-01-05T11:09:34.299Z,973.05
2017-01-05T11:10:34.264Z,973.05
2017-01-05T11:11:34.231Z,973.12
2017-01-05T11:12:34.198Z,973.36
2017-01-05T11:13:34.163Z,973.36
2017-01-05T11:14:34.134Z,973.13
2017-01-05T11:15:34.097Z,972.97
2017-01-05T11:16:34.064Z,972.95
2017-01-05T11:17:34.032Z,972.91
2017-01-05T11:18:33.998Z,972.87
2017-01-05T11:19:33.965Z,972.96
2017-01-05T11:20:33.933Z,972.89
2017-01-05T11:21:33.899Z,972.89
2017-01-05T11:22:33.868Z,972.88
2017-01-05T11:23:33.837Z,972.88
2017-01-05T11:24:33.803Z,972.89
2017-01-05T11:25:33.770Z,972.92
2017-01-05T11:26:33.737Z,972.89
2017-01-05T11:27:33.705Z,972.9
2017-01-05T11:28:33.676Z,972.81
2017-01-05T11:29:33.640Z,972.85
2017-01-05T11:30:33.607Z,972.91
2017-01-05T11:31:33.578Z,972.9
2017-01-05T11:32:33.540Z,972.98
2017-01-05T11:33:33.510Z,972.98
2017-01-05T11:34:33.475Z,973.02
2017-01-05T11:35:33.444Z,972.99
2017-01-05T11:36:33.410Z,973.02
2017-01-05T11:37:33.376Z,973.1
2017-01-05T11:38:33.343Z,973.12
2017-01-05T11:39:33.311Z,973.07
2017-01-05T11:40:33.275Z,973.04
2017-01-05T11:41:33.243Z,973.03
2017-01-05T11:42:33.210Z,973.04
2017-01-05T11:43:33.176Z,973.05
2017-01-05T11:44:33.142Z,973.01
2017-01-05T11:45:33.109Z,972.95
2017-01-05T11:46:33.076Z,972.96
2017-01-05T11:47:33.040Z,973.02
2017-01-05T11:48:33.011Z,972.97
2017-01-05T11:49:32.972Z,972.96
2017-01-05T11:50:32.936Z,973.05
2017-01-05T11:51:32.901Z,973.01
2017-01-05T11:52:32.865Z,972.98
2017-01-05T11:53:32.831Z,973.01
2017-01-05T11:54:32.793Z,973
2017-01-05T11:55:32.758Z,973.02
2017-01-05T11:56:32.723Z,973.03
2017-01-05T11:57:32.686Z,973.02
2017-01-05T11:58:32.648Z,973.04
2017-01-05T11:59:32.611Z,973.01
2017-01-05T12:00:32.575Z,972.99
2017-01-05T12:01:32.535Z,973.03
2017-01-05T12:02:32.499Z,973.03
2017-01-05T12:03:32.459Z,973
2017-01-05T12:04:32.423Z,972.98
2017-01-05T12:05:32.384Z,973.02
2017-01-05T12:06:32.345Z,972.96
2017-01-05T12:07:32.307Z,972.99
2017-01-05T12:08:32.269Z,972.98
2017-01-05T12:09:32.230Z,972.95
2017-01-05T12:10:32.190Z,972.96
2017-01-05T12:11:32.151Z,972.97
2017-01-05T12:12:32.112Z,972.99
2017-01-05T12:13:32.074Z,973.01
2017-01-05T12:14:32.035Z,973
2017-01-05T12:15:31.993Z,973
2017-01-05T12:16:31.956Z,972.97
2017-01-05T12:17:31.917Z,972.94
2017-01-05T12:18:31.874Z,972.94
2017-01-05T12:19:31.835Z,972.88
2017-01-05T12:20:31.793Z,972.97
2017-01-05T12:21:31.755Z,972.91
2017-01-05T12:22:31.713Z,972.97
2017-01-05T12:23:31.674Z,972.99
2017-01-05T12:24:31.635Z,972.99
2017-01-05T12:25:31.592Z,973.01
2017-01-05T12:26:31.552Z,973.01
2017-01-05T12:27:31.510Z,973.04
2017-01-05T12:28:31.468Z,973.03
2017-01-05T12:29:31.429Z,973.06
2017-01-05T12:30:31.386Z,973.08
2017-01-05T12:31:31.346Z,973.08
2017-01-05T12:32:31.304Z,973.08
2017-01-05T12:33:31.264Z,973.18
2017-01-05T12:34:31.221Z,973.11
2017-01-05T12:35:31.179Z,973.12
2017-01-05T12:36:31.137Z,973.17
2017-01-05T12:37:31.096Z,973.1
2017-01-05T12:38:31.054Z,973.17
2017-01-05T12:39:31.011Z,973.19
2017-01-05T12:40:30.969Z,973.18
2017-01-05T12:41:30.928Z,973.15
2017-01-05T12:42:30.885Z,973.22
2017-01-05T12:43:30.844Z,973.18
2017-01-05T12:44:30.802Z,973.22
2017-01-05T12:45:30.760Z,973.2
2017-01-05T12:46:30.717Z,973.22
2017-01-05T12:47:30.676Z,973.23
2017-01-05T12:48:30.633Z,973.29
2017-01-05T12:49:30.589Z,973.27
2017-01-05T12:50:30.549Z,973.22
2017-01-05T12:51:30.505Z,973.22
2017-01-05T12:52:30.464Z,973.24
2017-01-05T12:53:30.421Z,973.26
2017-01-05T12:54:30.379Z,973.26
2017-01-05T12:55:30.336Z,973.24
2017-01-05T12:56:30.293Z,973.22
2017-01-05T12:57:30.251Z,973.25
2017-01-05T12:58:30.209Z,973.27
2017-01-05T12:59:30.169Z,973.28
2017-01-05T13:00:30.124Z,973.22
2017-01-05T13:01:30.082Z,973.24
2017-01-05T13:02:30.040Z,973.17
2017-01-05T13:03:29.997Z,973.26
2017-01-05T13:04:29.960Z,973.21
2017-01-05T13:05:29.912Z,973.26
2017-01-05T13:06:29.871Z,973.24
2017-01-05T13:07:29.829Z,973.29
2017-01-05T13:08:29.785Z,973.25
2017-01-05T13:09:29.742Z,973.34
2017-01-05T13:10:29.700Z,973.34
2017-01-05T13:11:29.658Z,973.37
2017-01-05T13:12:29.615Z,973.37
2017-01-05T13:13:29.572Z,973.42
2017-01-05T13:14:29.531Z,973.45
2017-01-05T13:15:29.487Z,973.48
2017-01-05T13:16:29.446Z,973.48
2017-01-05T13:17:29.402Z,973.46
2017-01-05T13:18:29.359Z,973.57
2017-01-05T13:19:29.316Z,973.58
2017-01-05T13:20:29.273Z,973.6
2017-01-05T13:21:29.233Z,973.69
2017-01-05T13:22:29.189Z,973.71
2017-01-05T13:23:29.148Z,973.78
2017-01-05T13:24:29.113Z,973.75
2017-01-05T13:25:29.061Z,973.78
2017-01-05T13:26:29.023Z,973.79
2017-01-05T13:27:28.978Z,973.8
2017-01-05T13:28:28.935Z,973.71
2017-01-05T13:29:28.893Z,973.74
2017-01-05T13:30:28.851Z,973.74
2017-01-05T13:31:28.808Z,973.74
2017-01-05T13:32:28.767Z,973.75
2017-01-05T13:33:28.724Z,973.75
2017-01-05T13:34:28.683Z,973.78
2017-01-05T13:35:28.649Z,973.85
2017-01-05T13:36:28.600Z,973.84
2017-01-05T13:37:28.557Z,973.88
2017-01-05T13:38:28.516Z,973.82
2017-01-05T13:39:28.475Z,973.84
2017-01-05T13:40:28.432Z,973.89
2017-01-05T13:41:28.389Z,973.92
2017-01-05T13:42:28.348Z,973.93
2017-01-05T13:43:28.305Z,973.96
2017-01-05T13:44:28.262Z,974.02
2017-01-05T13:45:28.223Z,974
2017-01-05T13:46:28.178Z,974
2017-01-05T13:47:28.137Z,974.03
2017-01-05T13:48:28.093Z,974.06
2017-01-05T13:49:28.052Z,974.01
2017-01-05T13:50:28.011Z,974.02
2017-01-05T13:51:27.969Z,974.09
2017-01-05T13:52:27.925Z,974.15
2017-01-05T13:53:27.886Z,974.14
2017-01-05T13:54:27.841Z,974.1
2017-01-05T13:55:27.799Z,974.19
2017-01-05T13:56:27.756Z,974.18
2017-01-05T13:57:27.714Z,974.19
2017-01-05T13:58:27.679Z,974.21
2017-01-05T13:59:27.629Z,974.22
2017-01-05T14:00:27.586Z,974.23
2017-01-05T14:01:27.544Z,974.28
2017-01-05T14:02:27.504Z,974.26
2017-01-05T14:03:27.459Z,974.32
2017-01-05T14:04:27.416Z,974.31
2017-01-05T14:05:27.374Z,974.34
2017-01-05T14:06:27.330Z,974.32
2017-01-05T14:07:27.294Z,974.34
2017-01-05T14:08:27.248Z,974.4
2017-01-05T14:09:27.202Z,974.41
2017-01-05T14:10:27.168Z,974.47
2017-01-05T14:11:27.117Z,974.46
2017-01-05T14:12:27.075Z,974.47
2017-01-05T14:13:27.031Z,974.49
2017-01-05T14:14:26.995Z,974.55
2017-01-05T14:15:26.947Z,974.5
2017-01-05T14:16:26.904Z,974.5
2017-01-05T14:17:26.860Z,974.55
2017-01-05T14:18:26.818Z,974.53
2017-01-05T14:19:26.777Z,974.5
2017-01-05T14:20:26.732Z,974.54
2017-01-05T14:21:26.689Z,974.57
2017-01-05T14:22:26.645Z,974.63
2017-01-05T14:23:26.605Z,974.57
2017-01-05T14:24:26.560Z,974.61
2017-01-05T14:25:26.523Z,974.61
2017-01-05T14:26:26.475Z,974.6
2017-01-05T14:27:26.431Z,974.59
2017-01-05T14:28:26.395Z,974.59
2017-01-05T14:29:26.346Z,974.59
2017-01-05T14:30:26.305Z,974.59
2017-01-05T14:31:26.260Z,974.6
2017-01-05T14:32:26.221Z,974.65
2017-01-05T14:33:26.174Z,974.62
2017-01-05T14:34:26.132Z,974.59
2017-01-05T14:35:26.098Z,974.6
2017-01-05T14:36:26.046Z,974.65
2017-01-05T14:37:26.002Z,974.65
2017-01-05T14:38:25.958Z,974.65
2017-01-05T14:39:25.914Z,974.65
2017-01-05T14:40:25.870Z,974.71
2017-01-05T14:41:25.829Z,974.74
2017-01-05T14:42:25.788Z,974.69
2017-01-05T14:43:25.743Z,974.68
2017-01-05T14:44:25.700Z,974.75
2017-01-05T14:45:25.657Z,974.79
2017-01-05T14:46:25.617Z,974.8
2017-01-05T14:47:25.571Z,974.84
2017-01-05T14:48:25.531Z,974.81
2017-01-05T14:49:25.486Z,974.86
2017-01-05T14:50:25.445Z,974.87
2017-01-05T14:51:25.398Z,974.92
2017-01-05T14:52:25.356Z,974.93
2017-01-05T14:53:25.312Z,975.01
2017-01-05T14:54:25.268Z,974.99
2017-01-05T14:55:25.226Z,975.05
2017-01-05T14:56:25.184Z,975.09
2017-01-05T14:57:25.139Z,975.1
2017-01-05T14:58:25.096Z,975.13
2017-01-05T14:59:25.053Z,975.17
2017-01-05T15:00:25.011Z,975.17
2017-01-05T15:01:24.966Z,975.19
2017-01-05T15:02:24.924Z,975.2
2017-01-05T15:03:24.882Z,975.22
2017-01-05T15:04:24.838Z,975.24
2017-01-05T15:05:24.794Z,975.3
2017-01-05T15:06:24.752Z,975.31
2017-01-05T15:07:24.709Z,975.34